Time;durP1;ratioP1;P1;durP2;ratioP2;P2;SDS_P1;SDS_P2;PMS_P1;PMS_P2;Temp;Humidity;BMP_temperature;BMP_pressure;BME280_temperature;BME280_humidity;BME280_pressure;Samples;Min_cycle;Max_cycle;Signal;HPM_P1;HPM_P2
2023/10/28 00:00:38;;;;;;;17.15;8.02;;;10.10;99.90;;;;;;4196563;28;20075;-81
2023/10/28 00:02:39;;;;;;;18.58;8.27;;;10.20;99.90;;;;;;4215025;28;20044;-80
2023/10/28 00:04:40;;;;;;;18.88;8.38;;;10.10;99.90;;;;;;4197008;28;20120;-80
2023/10/28 00:06:41;;;;;;;18.38;7.90;;;10.10;99.90;;;;;;4196923;28;20044;-81
2023/10/28 00:08:42;;;;;;;18.33;7.03;;;10.10;99.90;;;;;;4180331;28;20080;-80
2023/10/28 00:10:44;;;;;;;22.35;8.57;;;10.10;99.90;;;;;;4214915;28;20119;-80
2023/10/28 00:12:45;;;;;;;15.45;7.80;;;10.00;99.90;;;;;;4214304;28;20415;-80
2023/10/28 00:14:47;;;;;;;16.42;7.35;;;10.00;99.90;;;;;;4197010;28;20053;-80
2023/10/28 00:16:49;;;;;;;14.25;6.43;;;10.00;99.90;;;;;;4180303;28;20049;-80
2023/10/28 00:18:50;;;;;;;20.52;7.60;;;10.00;99.90;;;;;;4180454;28;20124;-80
2023/10/28 00:20:51;;;;;;;20.20;6.75;;;10.00;99.90;;;;;;4214471;28;20044;-80
2023/10/28 00:22:54;;;;;;;15.10;7.13;;;10.00;99.90;;;;;;4195836;28;20528;-80
2023/10/28 00:24:58;;;;;;;14.80;7.05;;;10.00;99.90;;;;;;4196762;28;20107;-80
2023/10/28 00:26:59;;;;;;;15.57;6.38;;;10.00;99.90;;;;;;4196960;28;20044;-80
2023/10/28 00:29:00;;;;;;;15.13;6.88;;;10.10;99.90;;;;;;4196942;28;20080;-80
2023/10/28 00:31:02;;;;;;;16.42;6.65;;;10.00;99.90;;;;;;4214320;28;20044;-81
2023/10/28 00:33:03;;;;;;;14.80;6.07;;;10.10;99.90;;;;;;4196661;28;20094;-80
2023/10/28 00:35:07;;;;;;;12.80;6.18;;;10.00;99.90;;;;;;4196759;28;20056;-80
2023/10/28 00:37:08;;;;;;;14.30;6.63;;;10.00;99.90;;;;;;4196599;28;20139;-81
2023/10/28 00:39:11;;;;;;;13.15;6.28;;;10.00;99.90;;;;;;4196711;28;20052;-80
2023/10/28 00:41:11;;;;;;;15.43;5.80;;;10.00;99.90;;;;;;4196508;28;20044;-80
2023/10/28 00:43:12;;;;;;;13.25;6.05;;;10.10;99.90;;;;;;4214655;28;20054;-80
2023/10/28 00:45:15;;;;;;;12.88;6.63;;;10.10;99.90;;;;;;4214095;28;20036;-80
2023/10/28 00:47:17;;;;;;;15.45;7.10;;;10.00;99.90;;;;;;4214512;28;20416;-80
2023/10/28 00:49:18;;;;;;;17.00;7.93;;;10.20;99.90;;;;;;4196368;28;20055;-80
2023/10/28 00:51:19;;;;;;;49.05;8.68;;;10.10;99.90;;;;;;4214281;28;20126;-80
2023/10/28 00:53:24;;;;;;;17.33;6.72;;;10.00;99.90;;;;;;4213792;28;20047;-80
2023/10/28 00:55:27;;;;;;;19.23;8.88;;;10.00;99.90;;;;;;4196337;28;20056;-80
2023/10/28 00:57:31;;;;;;;20.17;8.30;;;10.00;99.90;;;;;;4196310;28;20566;-80
2023/10/28 00:59:32;;;;;;;23.17;7.60;;;10.00;99.90;;;;;;4214416;28;20040;-80
2023/10/28 01:01:33;;;;;;;20.50;8.07;;;10.10;99.90;;;;;;4196189;28;20059;-80
2023/10/28 01:03:34;;;;;;;19.00;7.95;;;10.20;99.90;;;;;;4214649;28;20098;-80
2023/10/28 01:05:35;;;;;;;22.20;9.82;;;10.10;99.90;;;;;;4196294;28;20117;-80
2023/10/28 01:07:38;;;;;;;22.30;9.30;;;10.10;99.90;;;;;;4214110;28;20047;-80
2023/10/28 01:09:48;;;;;;;24.65;9.88;;;10.10;99.90;;;;;;4196481;28;20059;-80
2023/10/28 01:11:48;;;;;;;24.35;10.02;;;10.10;99.90;;;;;;4196164;28;20049;-80
2023/10/28 01:13:49;;;;;;;22.73;9.82;;;10.10;99.90;;;;;;4196079;28;20551;-80
2023/10/28 01:15:50;;;;;;;23.15;9.77;;;10.10;99.90;;;;;;4195698;28;20045;-80
2023/10/28 01:17:50;;;;;;;30.25;10.82;;;10.10;99.90;;;;;;4196235;28;20044;-80
2023/10/28 01:19:52;;;;;;;23.73;10.45;;;10.10;99.90;;;;;;4196084;28;20048;-80
2023/10/28 01:21:54;;;;;;;23.77;10.45;;;10.10;99.90;;;;;;4196040;28;20174;-80
2023/10/28 01:23:56;;;;;;;29.45;11.02;;;10.10;99.90;;;;;;4196045;28;20080;-80
2023/10/28 01:25:59;;;;;;;24.92;10.77;;;10.10;99.90;;;;;;4196329;28;20076;-80
2023/10/28 01:27:59;;;;;;;29.35;11.52;;;10.10;99.90;;;;;;4179089;28;20040;-80
2023/10/28 01:30:00;;;;;;;30.92;12.15;;;10.10;99.90;;;;;;4179463;28;20052;-80
2023/10/28 01:32:03;;;;;;;29.77;11.07;;;10.20;99.90;;;;;;4213891;28;20040;-80
2023/10/28 01:34:04;;;;;;;30.05;12.20;;;10.10;99.90;;;;;;4197238;28;20053;-80
2023/10/28 01:36:05;;;;;;;29.35;11.27;;;10.20;99.90;;;;;;4217253;28;20047;-80
2023/10/28 01:38:06;;;;;;;30.88;12.27;;;10.10;99.90;;;;;;4199312;28;20099;-80
2023/10/28 01:40:12;;;;;;;34.00;13.15;;;10.10;99.90;;;;;;4217811;28;20469;-80
2023/10/28 01:42:13;;;;;;;29.02;10.88;;;10.20;99.90;;;;;;4198943;28;20098;-80
2023/10/28 01:44:14;;;;;;;33.70;12.43;;;10.30;99.90;;;;;;4217478;28;20575;-80
2023/10/28 01:46:16;;;;;;;27.55;12.18;;;10.20;99.90;;;;;;4217426;28;20040;-80
2023/10/28 01:48:16;;;;;;;32.15;13.05;;;10.20;99.90;;;;;;4217288;28;20040;-80
2023/10/28 01:50:20;;;;;;;30.88;12.48;;;10.20;99.90;;;;;;4217032;28;20048;-81
2023/10/28 01:52:21;;;;;;;32.42;13.57;;;10.20;99.90;;;;;;4182410;28;20045;-80
2023/10/28 01:54:22;;;;;;;33.85;13.98;;;10.20;99.90;;;;;;4217209;28;20576;-80
2023/10/28 01:56:22;;;;;;;35.50;12.70;;;10.20;99.90;;;;;;4216050;28;20088;-80
2023/10/28 01:58:24;;;;;;;35.50;14.00;;;10.20;99.90;;;;;;4199050;28;20083;-80
2023/10/28 02:00:30;;;;;;;36.13;13.60;;;10.20;99.90;;;;;;4198777;28;20527;-81
2023/10/28 02:02:33;;;;;;;41.45;15.15;;;10.20;99.90;;;;;;4198861;28;20048;-81
2023/10/28 02:04:34;;;;;;;35.00;14.32;;;10.20;99.90;;;;;;4198906;28;20049;-81
2023/10/28 02:06:35;;;;;;;37.35;13.75;;;10.20;99.90;;;;;;4199153;28;20064;-81
2023/10/28 02:08:35;;;;;;;38.80;14.38;;;10.20;99.90;;;;;;4216534;28;20040;-81
2023/10/28 02:10:36;;;;;;;38.67;14.43;;;10.40;99.90;;;;;;4216790;28;20043;-81
2023/10/28 02:12:37;;;;;;;37.63;14.18;;;10.20;99.90;;;;;;4217018;28;20048;-81
2023/10/28 02:14:40;;;;;;;40.08;14.88;;;10.20;99.90;;;;;;4199280;28;20135;-81
2023/10/28 02:16:41;;;;;;;41.13;14.57;;;10.20;99.90;;;;;;4216534;28;20036;-81
2023/10/28 02:18:41;;;;;;;37.97;14.55;;;10.20;99.90;;;;;;4216698;28;20032;-81
2023/10/28 02:20:43;;;;;;;42.58;15.73;;;10.20;99.90;;;;;;4216633;28;20048;-81
2023/10/28 02:22:43;;;;;;;38.63;14.27;;;10.20;99.90;;;;;;4216528;28;20131;-81
2023/10/28 02:24:44;;;;;;;39.10;15.60;;;10.20;99.90;;;;;;4216508;28;20055;-81
2023/10/28 02:26:45;;;;;;;40.40;13.95;;;10.20;99.90;;;;;;4216520;28;20051;-81
2023/10/28 02:28:46;;;;;;;39.38;14.85;;;10.20;99.90;;;;;;4216524;28;20373;-81
2023/10/28 02:30:47;;;;;;;39.60;15.57;;;10.40;99.90;;;;;;4215979;28;20068;-81
2023/10/28 02:32:47;;;;;;;43.58;15.13;;;10.20;99.90;;;;;;4216453;28;20044;-81
2023/10/28 02:34:48;;;;;;;44.95;15.90;;;10.20;99.90;;;;;;4216435;28;20055;-81
2023/10/28 02:36:49;;;;;;;39.92;14.75;;;10.30;99.90;;;;;;4198371;28;20477;-81
2023/10/28 02:38:50;;;;;;;39.55;14.85;;;10.20;99.90;;;;;;4197930;28;20044;-81
2023/10/28 02:40:51;;;;;;;34.85;14.65;;;10.20;99.90;;;;;;4216311;28;20146;-81
2023/10/28 02:42:52;;;;;;;38.22;13.80;;;10.10;99.90;;;;;;4181735;28;20044;-81
2023/10/28 02:44:52;;;;;;;38.95;15.07;;;10.10;99.90;;;;;;4216185;28;20055;-81
2023/10/28 02:46:53;;;;;;;40.92;15.10;;;10.20;99.90;;;;;;4197345;28;20135;-81
2023/10/28 02:48:54;;;;;;;36.88;14.98;;;10.10;99.90;;;;;;4198467;28;20428;-81
2023/10/28 02:51:07;;;;;;;35.80;13.93;;;10.10;99.90;;;;;;4198209;28;20044;-81
2023/10/28 02:53:08;;;;;;;31.55;13.77;;;10.00;99.90;;;;;;4215929;28;20575;-81
2023/10/28 02:55:10;;;;;;;41.08;14.70;;;10.00;99.90;;;;;;4198099;28;20049;-81
2023/10/28 02:57:11;;;;;;;36.40;14.30;;;10.00;99.90;;;;;;4198896;28;20094;-81
2023/10/28 02:59:12;;;;;;;44.38;16.40;;;10.00;99.90;;;;;;4216228;28;20119;-81
2023/10/28 03:01:13;;;;;;;35.55;14.27;;;9.90;99.90;;;;;;4215309;28;20077;-81
2023/10/28 03:03:14;;;;;;;34.78;13.77;;;10.00;99.90;;;;;;4215916;28;20110;-81
2023/10/28 03:05:14;;;;;;;40.30;14.57;;;10.00;99.90;;;;;;4216053;28;20044;-81
2023/10/28 03:07:15;;;;;;;36.55;14.60;;;9.90;99.90;;;;;;4216615;28;20141;-81
2023/10/28 03:09:17;;;;;;;35.17;13.93;;;9.90;99.90;;;;;;4215820;28;20043;-81
2023/10/28 03:11:18;;;;;;;33.72;14.32;;;10.10;99.90;;;;;;4215797;28;20048;-81
2023/10/28 03:13:19;;;;;;;40.08;15.18;;;10.00;99.90;;;;;;4197456;28;20550;-81
2023/10/28 03:15:20;;;;;;;34.65;14.10;;;9.80;99.90;;;;;;4216098;28;20044;-81
2023/10/28 03:17:20;;;;;;;36.97;13.65;;;9.80;99.90;;;;;;4215958;28;20040;-81
2023/10/28 03:19:21;;;;;;;35.45;13.63;;;9.80;99.90;;;;;;4198142;28;20044;-81
2023/10/28 03:21:22;;;;;;;38.17;15.18;;;10.00;99.90;;;;;;4197692;28;20044;-81
2023/10/28 03:23:23;;;;;;;45.55;14.38;;;9.80;99.90;;;;;;4215454;28;20408;-81
2023/10/28 03:25:26;;;;;;;37.00;13.77;;;9.90;99.90;;;;;;4181237;28;20529;-81
2023/10/28 03:27:26;;;;;;;44.08;14.77;;;9.80;99.90;;;;;;4215978;28;20454;-81
2023/10/28 03:29:27;;;;;;;38.17;14.80;;;9.80;99.90;;;;;;4215643;28;20079;-81
2023/10/28 03:31:27;;;;;;;37.90;13.77;;;9.90;99.90;;;;;;4215133;28;20058;-81
2023/10/28 03:33:28;;;;;;;35.08;13.45;;;9.70;99.90;;;;;;4197490;28;20045;-81
2023/10/28 03:35:29;;;;;;;43.33;14.68;;;9.70;99.90;;;;;;4180882;28;20525;-81
2023/10/28 03:37:31;;;;;;;34.60;14.38;;;9.70;99.90;;;;;;4215448;28;20043;-81
2023/10/28 03:39:33;;;;;;;34.45;13.43;;;9.70;99.90;;;;;;4215728;28;20082;-81
2023/10/28 03:41:33;;;;;;;34.95;13.10;;;9.70;99.90;;;;;;4197544;28;20052;-81
2023/10/28 03:43:35;;;;;;;35.33;14.00;;;9.80;99.90;;;;;;4215226;28;20044;-81
2023/10/28 03:45:37;;;;;;;30.95;13.30;;;9.70;99.90;;;;;;4214798;28;20051;-81
2023/10/28 03:47:38;;;;;;;33.70;13.38;;;9.80;99.90;;;;;;4180678;28;20532;-81
2023/10/28 03:49:39;;;;;;;31.27;12.25;;;9.90;99.90;;;;;;4180884;28;20049;-81
2023/10/28 03:51:40;;;;;;;32.58;12.30;;;9.70;99.90;;;;;;4197026;28;20044;-81
2023/10/28 03:53:43;;;;;;;28.05;11.65;;;9.80;99.90;;;;;;4215234;28;20069;-81
2023/10/28 03:55:44;;;;;;;32.97;13.27;;;9.70;99.90;;;;;;4180684;28;20575;-81
2023/10/28 03:57:45;;;;;;;33.55;13.88;;;9.80;99.90;;;;;;4197043;28;20044;-81
2023/10/28 03:59:48;;;;;;;28.27;11.90;;;9.70;99.90;;;;;;4196802;28;20037;-81
2023/10/28 04:01:48;;;;;;;32.97;13.45;;;9.90;99.90;;;;;;4197131;28;20139;-81
2023/10/28 04:03:49;;;;;;;30.15;13.77;;;9.80;99.90;;;;;;4214941;28;20093;-81
2023/10/28 04:05:51;;;;;;;29.55;12.50;;;9.90;99.90;;;;;;4215034;28;20042;-80
2023/10/28 04:07:51;;;;;;;31.10;12.80;;;9.70;99.90;;;;;;4214991;28;20155;-81
2023/10/28 04:09:52;;;;;;;30.80;12.18;;;9.70;99.90;;;;;;4197508;28;20063;-81
2023/10/28 04:11:53;;;;;;;33.17;13.32;;;9.80;99.90;;;;;;4196829;28;20048;-81
2023/10/28 04:13:55;;;;;;;27.88;12.40;;;9.80;99.90;;;;;;4197133;28;20480;-81
2023/10/28 04:15:55;;;;;;;30.23;11.90;;;9.70;99.90;;;;;;4196823;28;20472;-81
2023/10/28 04:17:56;;;;;;;31.23;12.95;;;9.70;99.90;;;;;;4180336;28;20045;-81
2023/10/28 04:19:58;;;;;;;27.77;11.60;;;9.70;99.90;;;;;;4214693;28;20044;-81
2023/10/28 04:21:58;;;;;;;27.85;11.30;;;9.70;99.90;;;;;;4196350;28;20563;-81
2023/10/28 04:24:01;;;;;;;31.20;12.32;;;9.60;99.90;;;;;;4196623;28;20044;-81
2023/10/28 04:26:03;;;;;;;31.42;11.93;;;9.70;99.90;;;;;;4180478;28;20103;-81
2023/10/28 04:28:04;;;;;;;32.10;12.50;;;9.70;99.90;;;;;;4196644;28;20119;-81
2023/10/28 04:30:05;;;;;;;28.30;11.95;;;9.70;99.90;;;;;;4196677;28;20508;-81
2023/10/28 04:32:07;;;;;;;29.58;12.15;;;9.70;99.90;;;;;;4179626;28;20056;-81
2023/10/28 04:34:08;;;;;;;25.92;11.75;;;9.60;99.90;;;;;;4214882;28;20123;-81
2023/10/28 04:36:09;;;;;;;28.30;11.38;;;9.70;99.90;;;;;;4214711;28;20044;-81
2023/10/28 04:38:10;;;;;;;31.15;11.88;;;9.60;99.90;;;;;;4214718;28;20067;-81
2023/10/28 04:40:11;;;;;;;25.60;11.25;;;9.70;99.90;;;;;;4214399;28;20051;-81
2023/10/28 04:42:12;;;;;;;31.00;12.68;;;9.60;99.90;;;;;;4214616;28;20086;-81
2023/10/28 04:44:13;;;;;;;26.77;12.50;;;9.60;99.90;;;;;;4214603;28;20040;-81
2023/10/28 04:46:14;;;;;;;26.25;11.82;;;9.60;99.90;;;;;;4214601;28;20040;-81
2023/10/28 04:48:15;;;;;;;31.00;12.13;;;9.60;99.90;;;;;;4214117;28;20043;-81
2023/10/28 04:50:17;;;;;;;32.47;12.40;;;9.70;99.90;;;;;;4214685;28;20525;-81
2023/10/28 04:52:17;;;;;;;25.48;12.48;;;9.70;99.90;;;;;;4214410;28;20048;-81
2023/10/28 04:54:18;;;;;;;32.40;11.98;;;9.70;99.90;;;;;;4214597;28;20047;-81
2023/10/28 04:56:19;;;;;;;28.60;11.82;;;9.70;99.90;;;;;;4213992;28;20036;-80
2023/10/28 04:58:21;;;;;;;29.10;11.93;;;9.60;99.90;;;;;;4214526;28;20459;-81
2023/10/28 05:00:22;;;;;;;32.83;12.43;;;9.70;99.90;;;;;;4214220;28;20484;-81
2023/10/28 05:02:22;;;;;;;29.17;11.57;;;9.70;99.90;;;;;;4214424;28;20040;-81
2023/10/28 05:04:27;;;;;;;31.35;12.52;;;9.70;99.90;;;;;;4214448;28;20089;-81
2023/10/28 05:06:27;;;;;;;26.23;11.68;;;9.60;99.90;;;;;;4214418;28;20433;-81
2023/10/28 05:08:29;;;;;;;32.78;11.70;;;9.70;99.90;;;;;;4213565;28;20051;-81
2023/10/28 05:10:30;;;;;;;29.63;13.00;;;9.70;99.90;;;;;;4214735;28;20054;-81
2023/10/28 05:12:32;;;;;;;28.95;12.63;;;9.70;99.90;;;;;;4214506;28;20125;-81
2023/10/28 05:14:33;;;;;;;32.97;12.43;;;9.70;99.90;;;;;;4214329;28;20050;-81
2023/10/28 05:16:34;;;;;;;38.78;12.90;;;9.70;99.90;;;;;;4212624;28;20051;-80
2023/10/28 05:18:35;;;;;;;26.98;11.73;;;9.70;99.90;;;;;;4214258;28;20181;-81
2023/10/28 05:20:37;;;;;;;32.95;13.52;;;9.80;99.90;;;;;;4214271;28;20040;-81
2023/10/28 05:22:39;;;;;;;32.50;13.73;;;9.70;99.90;;;;;;4214108;28;20050;-81
2023/10/28 05:24:41;;;;;;;26.05;12.55;;;9.70;99.90;;;;;;4214303;28;20455;-81
2023/10/28 05:26:43;;;;;;;28.70;11.70;;;9.70;99.90;;;;;;4195677;28;20049;-81
2023/10/28 05:28:46;;;;;;;35.10;12.45;;;9.70;99.90;;;;;;4214206;28;20492;-81
2023/10/28 05:30:47;;;;;;;34.28;12.75;;;9.70;99.90;;;;;;4214181;28;20400;-81
2023/10/28 05:32:50;;;;;;;33.00;11.95;;;9.70;99.90;;;;;;4214167;28;20044;-81
2023/10/28 05:34:51;;;;;;;33.05;11.48;;;9.60;99.90;;;;;;4196399;28;20248;-80
2023/10/28 05:36:51;;;;;;;30.13;13.10;;;9.70;99.90;;;;;;4214578;28;20040;-81
2023/10/28 05:38:54;;;;;;;34.45;12.00;;;9.70;99.90;;;;;;4214062;28;20044;-81
2023/10/28 05:40:55;;;;;;;23.67;10.55;;;9.70;99.90;;;;;;4213930;28;20405;-81
2023/10/28 05:42:56;;;;;;;36.70;12.25;;;9.70;99.90;;;;;;4213890;28;20517;-81
2023/10/28 05:44:57;;;;;;;31.70;11.48;;;9.90;99.90;;;;;;4196214;28;20045;-81
2023/10/28 05:46:59;;;;;;;23.70;11.00;;;9.80;99.90;;;;;;4213623;28;20073;-81
2023/10/28 05:49:00;;;;;;;31.23;11.45;;;9.80;99.90;;;;;;4213988;28;20532;-81
2023/10/28 05:51:02;;;;;;;31.30;11.25;;;9.80;99.90;;;;;;4214030;28;20036;-81
2023/10/28 05:53:04;;;;;;;35.83;12.15;;;9.80;99.90;;;;;;4214026;28;20048;-81
2023/10/28 05:55:06;;;;;;;28.80;11.05;;;9.80;99.90;;;;;;4196032;28;20063;-81
2023/10/28 05:57:06;;;;;;;32.28;12.02;;;9.80;99.90;;;;;;4214007;28;20106;-81
2023/10/28 05:59:08;;;;;;;31.58;11.80;;;9.80;99.90;;;;;;4213596;28;20044;-81
2023/10/28 06:01:09;;;;;;;28.27;10.60;;;9.80;99.90;;;;;;4195852;28;20061;-81
2023/10/28 06:03:09;;;;;;;27.98;11.68;;;9.70;99.90;;;;;;4213737;28;20040;-80
2023/10/28 06:05:10;;;;;;;25.52;10.73;;;9.80;99.90;;;;;;4195864;28;20045;-81
2023/10/28 06:07:11;;;;;;;35.25;12.18;;;9.80;99.90;;;;;;4213914;28;20519;-81
2023/10/28 06:09:13;;;;;;;30.90;11.63;;;9.80;99.90;;;;;;4213675;28;20052;-81
2023/10/28 06:11:14;;;;;;;30.95;12.18;;;9.80;99.90;;;;;;4213567;28;20051;-81
2023/10/28 06:13:15;;;;;;;27.15;11.27;;;9.80;99.90;;;;;;4213366;28;20392;-80
2023/10/28 06:15:17;;;;;;;27.35;11.10;;;9.80;99.90;;;;;;4179520;28;20128;-81
2023/10/28 06:17:17;;;;;;;30.60;13.15;;;9.80;99.90;;;;;;4213801;28;20076;-81
2023/10/28 06:19:21;;;;;;;30.38;11.77;;;9.80;99.90;;;;;;4195645;28;20051;-81
2023/10/28 06:21:23;;;;;;;25.80;10.82;;;9.80;99.90;;;;;;4215072;28;20044;-81
2023/10/28 06:23:25;;;;;;;30.98;12.13;;;9.80;99.90;;;;;;4216856;28;20044;-81
2023/10/28 06:25:27;;;;;;;34.78;11.35;;;9.80;99.90;;;;;;4198352;28;20435;-81
2023/10/28 06:27:27;;;;;;;30.45;11.52;;;9.80;99.90;;;;;;4198650;28;20062;-81
2023/10/28 06:29:28;;;;;;;32.70;12.43;;;9.80;99.90;;;;;;4216650;28;20489;-81
2023/10/28 06:31:29;;;;;;;29.02;10.38;;;9.80;99.90;;;;;;4216563;28;20044;-81
2023/10/28 06:33:30;;;;;;;29.27;10.75;;;9.80;99.90;;;;;;4216461;28;20059;-81
2023/10/28 06:35:30;;;;;;;24.98;11.98;;;9.80;99.90;;;;;;4215750;28;20075;-81
2023/10/28 06:37:31;;;;;;;35.10;11.52;;;9.80;99.90;;;;;;4216310;28;20071;-81
2023/10/28 06:39:35;;;;;;;29.67;11.98;;;9.80;99.90;;;;;;4198354;28;20048;-81
2023/10/28 06:41:35;;;;;;;36.45;11.55;;;9.80;99.90;;;;;;4216452;28;20051;-81
2023/10/28 06:43:37;;;;;;;30.83;10.88;;;9.80;99.90;;;;;;4216457;28;20043;-81
2023/10/28 06:45:38;;;;;;;30.38;11.70;;;9.80;99.90;;;;;;4216180;28;20048;-81
2023/10/28 06:47:39;;;;;;;26.33;11.10;;;9.80;99.90;;;;;;4216428;28;20559;-81
2023/10/28 06:49:41;;;;;;;35.33;12.60;;;9.80;99.90;;;;;;4216068;28;20046;-81
2023/10/28 06:51:43;;;;;;;34.95;11.60;;;9.90;99.90;;;;;;4216314;28;20059;-81
2023/10/28 06:53:44;;;;;;;32.72;11.18;;;9.80;99.90;;;;;;4181524;28;20041;-80
2023/10/28 06:55:46;;;;;;;37.67;11.80;;;9.90;99.90;;;;;;4198253;28;20102;-80
2023/10/28 06:57:48;;;;;;;27.30;11.10;;;9.90;99.90;;;;;;4216232;28;20538;-81
2023/10/28 06:59:49;;;;;;;23.20;10.40;;;9.90;99.90;;;;;;4197955;28;20048;-81
2023/10/28 07:01:50;;;;;;;28.90;10.73;;;9.90;99.90;;;;;;4216066;28;20127;-81
2023/10/28 07:03:51;;;;;;;26.92;10.07;;;10.00;99.90;;;;;;4198324;28;20158;-80
2023/10/28 07:05:52;;;;;;;25.25;10.57;;;10.00;99.90;;;;;;4216153;28;20044;-81
2023/10/28 07:07:56;;;;;;;29.65;10.45;;;9.90;99.90;;;;;;4215906;28;20543;-81
2023/10/28 07:09:57;;;;;;;33.03;10.63;;;10.00;99.90;;;;;;4216816;28;20115;-81
2023/10/28 07:11:57;;;;;;;20.48;10.38;;;10.00;99.90;;;;;;4216448;28;20126;-81
2023/10/28 07:13:58;;;;;;;21.15;9.73;;;10.00;99.90;;;;;;4216423;28;20092;-81
2023/10/28 07:16:03;;;;;;;35.17;9.63;;;10.00;99.90;;;;;;4197998;28;20048;-80
2023/10/28 07:18:07;;;;;;;20.83;8.85;;;10.00;99.90;;;;;;4215993;28;20499;-80
2023/10/28 07:20:08;;;;;;;20.15;9.05;;;10.10;99.90;;;;;;4215994;28;20040;-81
2023/10/28 07:22:09;;;;;;;23.38;9.45;;;10.10;99.90;;;;;;4197783;28;20080;-80
2023/10/28 07:24:11;;;;;;;25.00;8.40;;;10.10;99.90;;;;;;4215499;28;20070;-81
2023/10/28 07:26:12;;;;;;;24.40;9.63;;;10.10;99.90;;;;;;4197764;28;20467;-81
2023/10/28 07:28:14;;;;;;;22.05;9.65;;;10.10;99.90;;;;;;4215358;28;20563;-81
2023/10/28 07:30:15;;;;;;;18.95;8.30;;;10.20;99.90;;;;;;4215702;28;20548;-81
2023/10/28 07:32:16;;;;;;;12.60;7.35;;;10.20;99.90;;;;;;4215301;28;20052;-81
2023/10/28 07:34:18;;;;;;;18.17;7.15;;;10.10;99.90;;;;;;4197830;28;20045;-81
2023/10/28 07:36:19;;;;;;;19.48;8.02;;;10.20;99.90;;;;;;4215232;28;20044;-81
2023/10/28 07:38:20;;;;;;;20.60;7.60;;;10.20;99.90;;;;;;4197594;28;20059;-81
2023/10/28 07:40:21;;;;;;;14.23;7.22;;;10.20;99.90;;;;;;4197364;28;20412;-81
2023/10/28 07:42:23;;;;;;;11.38;5.75;;;10.20;99.90;;;;;;4197304;28;20040;-81
2023/10/28 07:44:23;;;;;;;15.02;7.40;;;10.20;99.90;;;;;;4215513;28;20118;-81
2023/10/28 07:46:26;;;;;;;13.35;5.63;;;10.20;99.90;;;;;;4197570;28;20086;-81
2023/10/28 07:48:28;;;;;;;14.48;6.00;;;10.30;99.90;;;;;;4197032;28;20107;-81
2023/10/28 07:50:29;;;;;;;13.13;6.15;;;10.30;99.90;;;;;;4180643;28;20048;-81
2023/10/28 07:52:30;;;;;;;15.77;5.93;;;10.30;99.90;;;;;;4215016;28;20076;-81
2023/10/28 07:54:32;;;;;;;16.30;5.47;;;10.40;99.90;;;;;;4197079;28;20048;-81
2023/10/28 07:56:33;;;;;;;14.20;5.90;;;10.30;99.90;;;;;;4197068;28;20048;-81
2023/10/28 07:58:34;;;;;;;9.93;5.03;;;10.40;99.90;;;;;;4215238;28;20123;-81
2023/10/28 08:00:36;;;;;;;11.63;5.00;;;10.30;99.90;;;;;;4197499;28;20086;-81
2023/10/28 08:02:37;;;;;;;15.73;5.53;;;10.40;99.90;;;;;;4214404;28;20044;-81
2023/10/28 08:04:39;;;;;;;11.40;5.05;;;10.40;99.90;;;;;;4196871;28;20074;-81
2023/10/28 08:06:42;;;;;;;13.25;5.57;;;10.40;99.90;;;;;;4196946;28;20495;-80
2023/10/28 08:08:43;;;;;;;10.82;5.47;;;10.50;99.90;;;;;;4214881;28;20040;-81
2023/10/28 08:10:45;;;;;;;9.32;5.15;;;10.60;99.90;;;;;;4214395;28;20062;-80
2023/10/28 08:12:46;;;;;;;8.43;5.00;;;10.40;99.90;;;;;;4215057;28;20107;-80
2023/10/28 08:14:48;;;;;;;13.75;5.05;;;10.40;99.90;;;;;;4197281;28;20048;-80
2023/10/28 08:16:48;;;;;;;11.32;4.90;;;10.50;99.90;;;;;;4215082;28;20492;-81
2023/10/28 08:18:49;;;;;;;12.68;4.90;;;10.50;99.90;;;;;;4214941;28;20044;-81
2023/10/28 08:20:50;;;;;;;10.35;4.78;;;10.50;99.90;;;;;;4196802;28;20080;-81
2023/10/28 08:22:50;;;;;;;10.05;4.63;;;10.70;99.90;;;;;;4180008;28;20049;-81
2023/10/28 08:24:51;;;;;;;10.52;4.63;;;10.40;99.90;;;;;;4180021;28;20088;-81
2023/10/28 08:26:52;;;;;;;8.10;4.20;;;10.50;99.90;;;;;;4196146;28;20045;-80
2023/10/28 08:28:53;;;;;;;8.32;4.18;;;10.60;99.90;;;;;;4196804;28;20055;-81
2023/10/28 08:30:54;;;;;;;7.32;3.75;;;10.60;99.90;;;;;;4196565;28;20056;-81
2023/10/28 08:32:55;;;;;;;6.28;3.80;;;11.20;99.90;;;;;;4196720;28;20052;-81
2023/10/28 08:34:56;;;;;;;5.80;3.60;;;12.10;99.90;;;;;;4196111;28;20472;-81
2023/10/28 08:36:57;;;;;;;7.68;3.17;;;12.70;99.90;;;;;;4196666;28;20070;-81
2023/10/28 08:38:58;;;;;;;7.75;3.42;;;13.20;99.90;;;;;;4214434;28;20059;-80
2023/10/28 08:40:59;;;;;;;6.55;3.60;;;13.10;99.90;;;;;;4196630;28;20102;-81
2023/10/28 08:43:00;;;;;;;6.10;3.60;;;12.80;99.90;;;;;;4196313;28;20060;-80
2023/10/28 08:45:03;;;;;;;8.60;3.65;;;12.50;99.90;;;;;;4199403;28;20493;-80
2023/10/28 08:47:08;;;;;;;8.70;3.67;;;12.20;99.90;;;;;;4215488;28;20140;-81
2023/10/28 08:49:13;;;;;;;7.00;3.58;;;12.00;99.90;;;;;;4214616;28;20146;-81
2023/10/28 08:51:15;;;;;;;8.00;3.65;;;11.80;99.90;;;;;;4214400;28;20476;-81
2023/10/28 08:53:16;;;;;;;6.05;3.38;;;11.70;99.90;;;;;;4214001;28;20051;-81
2023/10/28 08:55:20;;;;;;;7.30;3.70;;;11.60;99.90;;;;;;4214242;28;20063;-81
2023/10/28 08:57:23;;;;;;;5.35;3.30;;;11.40;99.90;;;;;;4196690;28;20430;-81
2023/10/28 08:59:25;;;;;;;9.52;4.03;;;11.40;99.90;;;;;;4214480;28;20538;-80
2023/10/28 09:01:27;;;;;;;7.70;3.80;;;11.30;99.90;;;;;;4195617;28;20064;-81
2023/10/28 09:03:31;;;;;;;7.97;3.40;;;11.30;99.90;;;;;;4214287;28;20048;-81
2023/10/28 09:05:32;;;;;;;9.68;4.00;;;11.30;99.90;;;;;;4214373;28;20032;-81
2023/10/28 09:07:33;;;;;;;9.10;3.95;;;11.30;99.90;;;;;;4214257;28;20108;-81
2023/10/28 09:09:37;;;;;;;5.88;3.40;;;11.20;99.90;;;;;;4214268;28;20042;-81
2023/10/28 09:11:39;;;;;;;7.85;3.90;;;11.20;99.90;;;;;;4213886;28;20119;-81
2023/10/28 09:13:47;;;;;;;8.85;3.38;;;11.20;99.90;;;;;;4213780;28;20086;-81
2023/10/28 09:15:47;;;;;;;6.03;3.63;;;11.20;99.90;;;;;;4214215;28;20408;-81
2023/10/28 09:17:49;;;;;;;9.93;4.13;;;11.20;99.90;;;;;;4196087;28;20048;-81
2023/10/28 09:19:53;;;;;;;7.97;3.50;;;11.20;99.90;;;;;;4214044;28;20051;-81
2023/10/28 09:21:55;;;;;;;5.45;3.50;;;11.10;99.90;;;;;;4196045;28;20044;-81
2023/10/28 09:24:01;;;;;;;5.40;3.28;;;11.10;99.90;;;;;;4214247;28;20044;-81
2023/10/28 09:26:02;;;;;;;8.32;3.35;;;11.10;99.90;;;;;;4213705;28;20403;-81
2023/10/28 09:28:07;;;;;;;7.97;3.83;;;11.10;99.90;;;;;;4214159;28;20044;-81
2023/10/28 09:30:10;;;;;;;9.25;3.30;;;11.10;99.90;;;;;;4214179;28;20047;-80
2023/10/28 09:32:11;;;;;;;6.03;3.47;;;11.10;99.90;;;;;;4215950;28;20074;-81
2023/10/28 09:34:12;;;;;;;7.43;3.90;;;11.20;99.90;;;;;;4214526;28;20218;-80
2023/10/28 09:36:13;;;;;;;8.95;3.15;;;11.20;99.90;;;;;;4213918;28;20105;-81
2023/10/28 09:38:13;;;;;;;7.82;3.25;;;11.10;99.90;;;;;;4214329;28;20056;-81
2023/10/28 09:40:14;;;;;;;8.07;3.63;;;11.20;99.90;;;;;;4214936;28;20044;-80
2023/10/28 09:42:15;;;;;;;8.68;3.50;;;11.20;99.90;;;;;;4218000;28;20040;-81
2023/10/28 09:44:16;;;;;;;6.18;4.07;;;11.20;99.90;;;;;;4214899;28;20071;-80
2023/10/28 09:46:26;;;;;;;8.00;3.22;;;11.30;99.90;;;;;;4214023;28;20044;-81
2023/10/28 09:48:31;;;;;;;5.28;3.30;;;11.30;99.90;;;;;;4213673;28;20051;-80
2023/10/28 09:50:41;;;;;;;7.57;3.70;;;11.30;99.90;;;;;;4214681;28;20040;-80
2023/10/28 09:52:43;;;;;;;6.72;2.80;;;11.40;99.90;;;;;;4218557;28;20044;-81
2023/10/28 09:54:49;;;;;;;7.78;3.03;;;11.40;99.90;;;;;;4216267;28;20484;-81
2023/10/28 09:56:51;;;;;;;4.72;2.63;;;11.40;99.90;;;;;;4216978;28;20040;-81
2023/10/28 09:59:00;;;;;;;7.38;2.80;;;11.40;99.90;;;;;;4217166;28;20115;-81
2023/10/28 10:01:30;;;;;;;4.47;2.80;;;11.40;99.90;;;;;;4199032;28;20444;-81
2023/10/28 10:03:40;;;;;;;8.77;3.20;;;11.40;99.90;;;;;;4201988;28;20044;-81
2023/10/28 10:05:44;;;;;;;4.63;2.63;;;11.40;99.90;;;;;;4217015;28;20144;-81
2023/10/28 10:07:45;;;;;;;4.45;2.60;;;11.50;99.90;;;;;;4216922;28;20048;-81
2023/10/28 10:09:49;;;;;;;10.93;4.03;;;11.40;99.90;;;;;;4198844;28;20040;-81
2023/10/28 10:11:50;;;;;;;10.55;2.80;;;11.50;99.90;;;;;;4216473;28;20069;-81
2023/10/28 10:13:51;;;;;;;9.02;3.13;;;11.40;99.90;;;;;;4216917;28;20039;-81
2023/10/28 10:16:07;;;;;;;7.35;3.03;;;11.50;99.90;;;;;;4217001;28;20574;-81
2023/10/28 10:18:18;;;;;;;9.85;2.92;;;11.40;99.90;;;;;;4216906;28;20040;-81
2023/10/28 10:20:25;;;;;;;8.02;2.88;;;11.50;99.90;;;;;;4216302;28;20043;-81
2023/10/28 10:22:29;;;;;;;9.75;2.72;;;11.50;99.90;;;;;;4216752;28;20044;-81
2023/10/28 10:24:30;;;;;;;10.27;2.90;;;11.50;99.90;;;;;;4216889;28;20052;-81